Time;durP1;ratioP1;P1;durP2;ratioP2;P2;SDS_P1;SDS_P2;PMS_P1;PMS_P2;Temp;Humidity;BMP_temperature;BMP_pressure;BME280_temperature;BME280_humidity;BME280_pressure;Samples;Min_cycle;Max_cycle;Signal;HPM_P1;HPM_P2
2022/07/18 00:01:50;;;;;;;3.08;1.85;;;19.40;61.30;;;;;;5094036;28;20224;-88
2022/07/18 00:04:27;;;;;;;1.90;1.80;;;19.40;62.30;;;;;;5094021;28;20225;-88
2022/07/18 00:07:07;;;;;;;2.47;1.73;;;19.40;63.30;;;;;;5094281;28;20200;-88
2022/07/18 00:09:51;;;;;;;1.73;1.63;;;19.30;63.10;;;;;;5093387;28;20222;-88
2022/07/18 00:12:40;;;;;;;4.68;1.80;;;19.20;64.10;;;;;;5093451;28;20234;-88
2022/07/18 00:15:18;;;;;;;1.35;1.15;;;19.20;63.80;;;;;;5094077;28;20228;-88
2022/07/18 00:17:53;;;;;;;1.75;1.63;;;19.10;62.30;;;;;;5093566;28;20204;-88
2022/07/18 00:20:29;;;;;;;1.88;1.30;;;19.00;62.70;;;;;;5094125;28;20212;-88
2022/07/18 00:23:14;;;;;;;1.77;1.67;;;19.00;63.20;;;;;;5093558;28;20210;-88
2022/07/18 00:25:57;;;;;;;1.70;1.60;;;18.90;63.70;;;;;;5093841;28;20230;-88
2022/07/18 00:28:51;;;;;;;2.83;1.92;;;18.90;63.60;;;;;;5093630;28;20208;-88
2022/07/18 00:34:41;;;;;;;1.48;1.30;;;18.80;63.80;;;;;;5090113;28;20228;-88
2022/07/18 00:37:26;;;;;;;1.75;1.63;;;18.80;64.10;;;;;;5093584;28;20207;-90
2022/07/18 00:40:01;;;;;;;1.75;1.50;;;18.70;63.40;;;;;;5093810;28;20226;-90
2022/07/18 00:42:51;;;;;;;3.38;1.40;;;18.70;64.20;;;;;;5093312;28;20200;-90
2022/07/18 00:45:32;;;;;;;1.55;1.45;;;18.60;64.20;;;;;;5093273;28;20228;-91
2022/07/18 00:48:25;;;;;;;1.65;1.52;;;18.50;64.20;;;;;;5093428;28;20204;-91
2022/07/18 00:51:14;;;;;;;1.52;1.42;;;18.50;64.50;;;;;;5093301;28;20212;-91
2022/07/18 00:54:03;;;;;;;2.22;1.30;;;18.50;64.90;;;;;;5093275;28;20228;-90
2022/07/18 00:56:50;;;;;;;1.38;1.30;;;18.50;64.90;;;;;;5093539;28;20200;-90
2022/07/18 01:01:42;;;;;;;1.73;1.58;;;18.40;65.20;;;;;;5093263;28;20246;-90
2022/07/18 01:02:36;;;;;;;1.73;1.63;;;18.40;65.20;;;;;;5092482;28;20192;-91
2022/07/18 01:05:17;;;;;;;2.85;1.50;;;18.40;68.00;;;;;;5093039;28;20228;-90
2022/07/18 01:08:09;;;;;;;1.73;1.40;;;18.40;69.50;;;;;;5092917;28;20211;-91
2022/07/18 01:13:42;;;;;;;5.70;1.50;;;18.30;70.20;;;;;;5091036;28;20219;-91
2022/07/18 01:16:34;;;;;;;2.13;1.92;;;18.30;71.20;;;;;;5093271;28;20196;-90
2022/07/18 01:19:09;;;;;;;1.67;1.58;;;18.30;72.70;;;;;;5093062;28;20207;-91
2022/07/18 01:21:47;;;;;;;2.28;1.63;;;18.20;73.70;;;;;;5092616;28;20219;-90
2022/07/18 01:27:22;;;;;;;2.45;1.58;;;18.20;74.70;;;;;;5092915;28;20219;-90
2022/07/18 01:30:06;;;;;;;2.80;2.17;;;18.10;74.80;;;;;;5092572;28;20201;-90
2022/07/18 01:35:42;;;;;;;1.15;1.15;;;18.00;75.60;;;;;;5092022;28;20311;-90
2022/07/18 01:38:30;;;;;;;1.30;1.30;;;17.90;75.70;;;;;;5092723;28;20291;-90
2022/07/18 01:41:14;;;;;;;1.75;1.40;;;17.90;76.10;;;;;;5092727;28;20287;-91
2022/07/18 01:43:54;;;;;;;1.70;1.60;;;17.90;76.30;;;;;;5092337;28;20232;-91
2022/07/18 01:46:37;;;;;;;3.05;1.55;;;17.90;76.20;;;;;;5092942;28;20200;-91
2022/07/18 01:52:19;;;;;;;1.63;1.52;;;17.80;77.30;;;;;;5090946;28;20220;-90
2022/07/18 01:54:58;;;;;;;1.73;1.30;;;17.70;77.50;;;;;;5092597;28;20224;-90
2022/07/18 02:00:41;;;;;;;1.42;1.33;;;17.60;77.70;;;;;;5092202;28;20204;-90
2022/07/18 02:06:31;;;;;;;3.97;1.50;;;17.60;79.10;;;;;;5092555;28;20204;-90
2022/07/18 02:09:17;;;;;;;1.40;1.30;;;17.60;78.90;;;;;;5092730;28;20212;-90
2022/07/18 02:12:10;;;;;;;1.40;1.30;;;17.50;79.30;;;;;;5091539;28;20216;-91
2022/07/18 02:14:48;;;;;;;7.38;2.17;;;17.50;79.70;;;;;;5092564;28;20228;-91
2022/07/18 02:17:36;;;;;;;2.40;1.50;;;17.50;79.50;;;;;;5092620;28;20200;-91
2022/07/18 02:20:24;;;;;;;2.28;2.00;;;17.50;80.00;;;;;;5092261;28;20212;-90
2022/07/18 02:23:17;;;;;;;2.35;1.67;;;17.40;80.10;;;;;;5092389;28;20199;-90
2022/07/18 02:26:12;;;;;;;7.50;1.73;;;17.40;80.80;;;;;;5092770;28;20200;-91
2022/07/18 02:29:01;;;;;;;1.33;1.23;;;17.40;81.30;;;;;;5092431;28;20220;-91
2022/07/18 02:34:32;;;;;;;1.35;1.25;;;17.30;82.20;;;;;;5091931;28;20221;-91
2022/07/18 02:37:15;;;;;;;1.88;1.33;;;17.30;82.70;;;;;;5096134;28;20204;-91
2022/07/18 02:39:57;;;;;;;1.45;1.25;;;17.20;82.60;;;;;;5095917;28;20200;-91
2022/07/18 02:42:53;;;;;;;1.88;1.45;;;17.20;83.20;;;;;;5095375;28;20291;-91
2022/07/18 02:45:43;;;;;;;1.50;1.40;;;17.10;83.50;;;;;;5095379;28;20239;-91
2022/07/18 02:48:34;;;;;;;1.92;1.73;;;17.10;83.70;;;;;;5095753;28;20206;-90
2022/07/18 02:51:24;;;;;;;2.15;1.55;;;17.00;84.20;;;;;;5095359;28;20236;-90
2022/07/18 02:54:22;;;;;;;1.65;1.55;;;16.90;84.70;;;;;;5095280;28;20232;-90
2022/07/18 02:57:11;;;;;;;1.20;1.10;;;16.80;85.40;;;;;;5095337;28;20197;-90
2022/07/18 03:06:18;;;;;;;2.60;1.38;;;16.80;87.20;;;;;;5095204;28;20248;-91
2022/07/18 03:09:00;;;;;;;1.45;1.35;;;16.70;88.10;;;;;;5095479;28;20209;-90
2022/07/18 03:11:41;;;;;;;1.92;1.77;;;16.70;88.60;;;;;;5094401;28;20211;-90
2022/07/18 03:17:47;;;;;;;1.77;1.67;;;16.60;89.60;;;;;;5095452;28;20195;-91
2022/07/18 03:20:33;;;;;;;1.30;1.20;;;16.60;90.10;;;;;;5094495;28;20200;-90
2022/07/18 03:23:20;;;;;;;1.73;1.45;;;16.60;90.20;;;;;;5095207;28;20234;-91
2022/07/18 03:31:50;;;;;;;1.50;1.40;;;16.50;90.70;;;;;;5094661;28;20203;-90
2022/07/18 03:37:20;;;;;;;1.58;1.42;;;16.50;91.00;;;;;;5092534;28;20287;-91
2022/07/18 03:40:01;;;;;;;1.58;1.48;;;16.50;91.30;;;;;;5094496;28;20196;-90
2022/07/18 03:42:59;;;;;;;2.03;1.50;;;16.50;91.30;;;;;;5094968;28;20195;-90
2022/07/18 03:46:06;;;;;;;1.52;1.42;;;16.50;91.40;;;;;;5093972;28;20231;-91
2022/07/18 03:48:47;;;;;;;1.67;1.58;;;16.50;91.30;;;;;;5088877;28;20211;-90
2022/07/18 03:51:37;;;;;;;1.95;1.73;;;16.50;91.60;;;;;;5091592;28;20268;-91
2022/07/18 03:54:37;;;;;;;4.20;2.33;;;16.50;91.70;;;;;;5094394;28;20224;-90
2022/07/18 03:57:25;;;;;;;2.10;1.90;;;16.40;91.90;;;;;;5094449;28;20208;-90
2022/07/18 04:00:09;;;;;;;2.20;1.90;;;16.40;92.00;;;;;;5094210;28;20208;-91
2022/07/18 04:02:56;;;;;;;3.13;2.28;;;16.40;92.10;;;;;;5093447;28;20199;-90
2022/07/18 04:08:35;;;;;;;3.03;1.80;;;16.50;92.20;;;;;;5093359;28;20211;-90
2022/07/18 04:11:23;;;;;;;3.47;1.63;;;16.60;92.30;;;;;;5093785;28;20200;-87
2022/07/18 04:14:08;;;;;;;1.55;1.45;;;16.60;92.20;;;;;;5093998;28;20224;-87
2022/07/18 04:19:57;;;;;;;2.15;1.65;;;16.60;91.90;;;;;;5087494;28;20279;-87
2022/07/18 04:22:59;;;;;;;4.25;1.80;;;16.60;91.90;;;;;;5094240;28;20328;-87
2022/07/18 04:25:48;;;;;;;1.80;1.65;;;16.60;92.00;;;;;;5093926;28;20220;-87
2022/07/18 04:28:33;;;;;;;2.53;1.80;;;16.60;92.30;;;;;;5093690;28;20200;-87
2022/07/18 04:31:22;;;;;;;4.03;2.00;;;16.60;92.10;;;;;;5093308;28;20204;-87
2022/07/18 04:34:15;;;;;;;2.22;1.80;;;16.70;92.60;;;;;;5092946;28;20224;-88
2022/07/18 04:37:17;;;;;;;1.35;1.25;;;16.70;92.40;;;;;;5089448;28;20223;-88
2022/07/18 04:40:00;;;;;;;2.22;1.75;;;16.80;92.20;;;;;;5093717;28;20196;-87
2022/07/18 04:42:48;;;;;;;2.03;1.88;;;16.90;92.40;;;;;;5093245;28;20208;-88
2022/07/18 04:45:30;;;;;;;1.45;1.35;;;17.00;92.10;;;;;;5083425;28;20254;-87
2022/07/18 04:48:17;;;;;;;1.60;1.50;;;17.10;92.60;;;;;;5093414;28;20204;-88
2022/07/18 04:50:57;;;;;;;2.63;2.10;;;17.10;92.30;;;;;;5093179;28;20234;-87
2022/07/18 04:53:39;;;;;;;2.03;1.90;;;17.20;91.70;;;;;;5093440;28;20224;-88
2022/07/18 04:56:24;;;;;;;1.75;1.65;;;17.20;91.60;;;;;;5092647;28;20208;-88
2022/07/18 05:01:56;;;;;;;2.00;1.90;;;17.40;91.30;;;;;;5092828;28;20237;-87
2022/07/18 05:04:39;;;;;;;1.63;1.52;;;17.40;91.30;;;;;;5092916;28;20224;-87
2022/07/18 05:07:16;;;;;;;2.33;1.92;;;17.40;91.30;;;;;;5093197;28;20223;-88
2022/07/18 05:10:07;;;;;;;2.97;1.80;;;17.50;91.30;;;;;;5093127;28;20231;-88
2022/07/18 05:12:56;;;;;;;2.30;1.80;;;17.50;91.10;;;;;;5092623;28;20204;-87
2022/07/18 05:15:42;;;;;;;2.00;1.80;;;17.50;91.20;;;;;;5093323;28;20306;-87
2022/07/18 05:18:25;;;;;;;2.20;2.00;;;17.60;91.10;;;;;;5093091;28;20204;-88
2022/07/18 05:21:05;;;;;;;9.27;1.92;;;17.70;90.90;;;;;;5092877;28;20200;-88
2022/07/18 05:23:40;;;;;;;7.75;2.50;;;17.70;90.90;;;;;;5092587;28;20219;-88
2022/07/18 05:26:27;;;;;;;3.05;2.20;;;17.80;90.60;;;;;;5092787;28;20268;-87
2022/07/18 05:29:08;;;;;;;3.70;2.40;;;17.80;90.40;;;;;;5093064;28;20227;-87
2022/07/18 05:31:59;;;;;;;1.90;1.80;;;17.90;90.30;;;;;;5092622;28;20208;-87
2022/07/18 05:34:42;;;;;;;2.67;2.22;;;18.00;90.60;;;;;;5092205;28;20239;-87
2022/07/18 05:37:20;;;;;;;2.00;1.90;;;18.10;90.10;;;;;;5092860;28;20214;-88
2022/07/18 05:48:41;;;;;;;2.88;1.88;;;18.60;90.00;;;;;;5088197;28;20203;-87
2022/07/18 05:51:21;;;;;;;3.75;2.10;;;18.80;90.40;;;;;;5092373;28;20210;-87
2022/07/18 05:54:23;;;;;;;2.30;2.03;;;18.90;88.00;;;;;;5090024;28;20260;-88
2022/07/18 05:56:57;;;;;;;10.18;2.03;;;19.00;87.30;;;;;;5093009;28;20208;-88
2022/07/18 05:59:44;;;;;;;2.72;2.28;;;19.20;87.40;;;;;;5092766;28;20223;-88
2022/07/18 06:02:16;;;;;;;2.90;2.10;;;19.30;87.40;;;;;;5092347;28;20208;-88
2022/07/18 06:05:00;;;;;;;4.03;2.35;;;19.40;88.20;;;;;;5092173;28;20223;-87
2022/07/18 06:08:09;;;;;;;1.98;1.88;;;19.50;89.00;;;;;;5092239;28;20196;-87
2022/07/18 06:10:53;;;;;;;3.38;2.25;;;19.50;87.70;;;;;;5096353;28;20204;-87
2022/07/18 06:13:37;;;;;;;3.45;2.15;;;19.60;88.50;;;;;;5096295;28;20200;-87
2022/07/18 06:16:19;;;;;;;1.83;1.73;;;19.80;90.40;;;;;;5096314;28;20212;-87
2022/07/18 06:19:00;;;;;;;3.63;2.55;;;19.90;88.40;;;;;;5096647;28;20210;-87
2022/07/18 06:21:45;;;;;;;2.20;2.00;;;20.10;88.60;;;;;;5096092;28;20212;-87
2022/07/18 06:24:27;;;;;;;3.17;2.22;;;20.20;87.70;;;;;;5095978;28;20213;-87
2022/07/18 06:27:19;;;;;;;3.08;2.55;;;20.30;86.90;;;;;;5096053;28;20208;-87
2022/07/18 06:30:17;;;;;;;6.10;2.85;;;20.30;86.60;;;;;;5096192;28;20209;-87
2022/07/18 06:33:07;;;;;;;2.58;2.38;;;20.30;86.10;;;;;;5095604;28;20208;-87
2022/07/18 06:38:40;;;;;;;2.65;2.10;;;20.30;86.60;;;;;;5095604;28;20211;-87
2022/07/18 06:41:24;;;;;;;2.60;2.40;;;20.40;85.30;;;;;;5095593;28;20204;-87
2022/07/18 06:44:18;;;;;;;3.75;2.65;;;20.40;85.20;;;;;;5095882;28;20223;-87
2022/07/18 06:47:17;;;;;;;2.60;2.40;;;20.50;84.10;;;;;;5095917;28;20211;-86
2022/07/18 06:50:08;;;;;;;3.55;2.38;;;20.70;83.60;;;;;;5090387;28;20308;-87
2022/07/18 06:52:45;;;;;;;3.10;2.42;;;20.70;82.80;;;;;;5096122;28;20210;-87
2022/07/18 06:58:38;;;;;;;3.15;2.67;;;21.10;81.10;;;;;;5093926;28;20227;-87
2022/07/18 07:01:18;;;;;;;3.58;2.47;;;21.40;80.70;;;;;;5095300;28;20200;-87
2022/07/18 07:04:13;;;;;;;3.03;2.17;;;21.50;79.60;;;;;;5095629;28;20302;-87
2022/07/18 07:06:50;;;;;;;1.70;1.60;;;21.70;78.90;;;;;;5095763;28;20200;-87
2022/07/18 07:09:41;;;;;;;25.05;2.53;;;21.90;77.40;;;;;;5095494;28;20215;-86
2022/07/18 07:12:28;;;;;;;2.45;2.25;;;22.10;76.00;;;;;;5095273;28;20239;-87
2022/07/18 07:15:14;;;;;;;2.78;1.85;;;22.40;75.70;;;;;;5095004;28;20296;-87
2022/07/18 07:20:35;;;;;;;2.60;1.80;;;22.80;73.20;;;;;;5094779;28;20200;-87
2022/07/18 07:23:40;;;;;;;2.60;2.40;;;23.10;72.00;;;;;;5081195;28;20207;-87
2022/07/18 07:26:22;;;;;;;4.05;2.20;;;23.50;71.30;;;;;;5095007;28;20203;-87
2022/07/18 07:29:08;;;;;;;4.20;3.08;;;24.20;68.80;;;;;;5095328;28;20211;-87
2022/07/18 07:31:52;;;;;;;2.00;1.85;;;25.20;67.60;;;;;;5094853;28;20208;-87
2022/07/18 07:34:31;;;;;;;2.47;1.85;;;26.70;64.80;;;;;;5094603;28;20224;-86
2022/07/18 07:37:12;;;;;;;4.93;2.10;;;28.10;61.10;;;;;;5094850;28;20196;-87
2022/07/18 07:39:53;;;;;;;4.00;2.08;;;29.40;58.10;;;;;;5094500;28;20204;-87
2022/07/18 07:42:30;;;;;;;2.75;1.65;;;30.80;55.50;;;;;;5094338;28;20200;-87
2022/07/18 07:45:17;;;;;;;5.03;2.13;;;32.10;53.00;;;;;;5094718;28;20231;-87
2022/07/18 07:48:03;;;;;;;2.20;1.88;;;33.20;51.40;;;;;;5094915;28;20204;-87
2022/07/18 07:50:42;;;;;;;2.25;1.80;;;34.00;47.60;;;;;;5094296;28;20312;-87
2022/07/18 07:53:25;;;;;;;1.88;1.77;;;34.30;46.30;;;;;;5094311;28;20286;-87
2022/07/18 07:56:04;;;;;;;2.05;1.80;;;36.00;44.50;;;;;;5094351;28;20272;-87
2022/07/18 07:59:01;;;;;;;3.90;1.90;;;37.30;43.30;;;;;;5094596;28;20349;-87
2022/07/18 08:01:39;;;;;;;2.92;1.80;;;38.20;39.10;;;;;;5094276;28;20200;-87
2022/07/18 08:04:30;;;;;;;1.75;1.60;;;38.50;38.30;;;;;;5094120;28;20230;-87
2022/07/18 08:07:02;;;;;;;1.67;1.58;;;38.90;37.40;;;;;;5094486;28;20206;-87
2022/07/18 08:09:49;;;;;;;1.75;1.40;;;38.70;37.40;;;;;;5092589;28;20265;-87
2022/07/18 08:12:36;;;;;;;2.75;1.42;;;38.70;37.50;;;;;;5091856;28;20207;-87
2022/07/18 08:15:21;;;;;;;1.90;1.80;;;39.20;37.20;;;;;;5093687;28;20219;-87
2022/07/18 08:18:01;;;;;;;2.00;1.45;;;39.90;36.80;;;;;;5093871;28;20216;-87
2022/07/18 08:20:57;;;;;;;;;;;;;;;;;;;;;
2022/07/18 08:23:39;;;;;;;1.65;1.55;;;39.80;34.30;;;;;;5093849;28;20200;-87
2022/07/18 08:26:44;;;;;;;2.38;1.52;;;39.20;36.70;;;;;;5094204;28;20195;-88
2022/07/18 08:29:25;;;;;;;2.58;1.88;;;40.10;36.10;;;;;;5094094;28;20268;-88
2022/07/18 08:32:30;;;;;;;1.48;1.35;;;40.50;34.60;;;;;;5092559;28;20314;-87
2022/07/18 08:35:23;;;;;;;1.27;1.23;;;40.00;33.80;;;;;;5093099;28;20254;-87
2022/07/18 08:38:15;;;;;;;2.58;1.55;;;40.10;35.00;;;;;;5087520;28;20203;-87
2022/07/18 08:44:01;;;;;;;4.45;1.70;;;40.10;33.00;;;;;;5093573;28;20242;-87
2022/07/18 08:47:04;;;;;;;2.63;1.58;;;39.20;32.90;;;;;;5093287;28;20207;-88
2022/07/18 08:49:43;;;;;;;1.85;1.52;;;38.80;33.60;;;;;;5093637;28;20264;-87
2022/07/18 08:52:28;;;;;;;1.83;1.70;;;37.40;35.30;;;;;;5093238;28;20221;-88
2022/07/18 08:55:27;;;;;;;3.72;1.73;;;37.30;36.60;;;;;;5092667;28;20224;-87
2022/07/18 08:58:14;;;;;;;7.55;1.55;;;38.00;36.50;;;;;;5093689;28;20227;-88
2022/07/18 09:01:06;;;;;;;2.28;1.67;;;38.70;34.20;;;;;;5093006;28;20215;-88
2022/07/18 09:04:22;;;;;;;1.98;1.60;;;39.10;33.90;;;;;;5093216;28;20241;-88
2022/07/18 09:07:27;;;;;;;1.60;1.50;;;38.90;34.90;;;;;;5092976;28;20203;-87
2022/07/18 09:10:14;;;;;;;5.03;2.10;;;38.50;33.50;;;;;;5090251;28;20200;-88
2022/07/18 09:13:14;;;;;;;1.55;1.45;;;39.00;33.90;;;;;;5079288;28;20207;-88
2022/07/18 09:16:17;;;;;;;3.05;1.80;;;39.20;33.50;;;;;;5092804;28;20227;-87
2022/07/18 09:19:18;;;;;;;2.80;2.00;;;39.20;35.00;;;;;;5075548;28;20196;-88
2022/07/18 09:22:15;;;;;;;1.85;1.52;;;39.40;33.60;;;;;;5092915;28;20210;-88
2022/07/18 09:25:04;;;;;;;4.30;1.80;;;40.30;33.10;;;;;;5093334;28;20235;-88
2022/07/18 09:31:07;;;;;;;;;;;;;;;;;;;;;
2022/07/18 09:33:56;;;;;;;2.45;1.70;;;41.40;31.00;;;;;;5093077;28;20223;-88
2022/07/18 09:36:58;;;;;;;3.22;1.45;;;40.30;31.00;;;;;;5092484;28;20224;-88
2022/07/18 09:39:35;;;;;;;3.47;1.50;;;38.20;33.30;;;;;;5092877;28;20203;-88
2022/07/18 09:42:29;;;;;;;5.28;1.70;;;37.00;33.70;;;;;;5092524;28;20204;-88
2022/07/18 09:45:09;;;;;;;3.70;1.73;;;37.00;34.40;;;;;;5097199;28;20224;-87
2022/07/18 09:48:13;;;;;;;1.60;1.50;;;37.70;32.40;;;;;;5097023;28;20203;-87
2022/07/18 09:50:58;;;;;;;1.55;1.40;;;38.60;32.70;;;;;;5096559;28;20203;-88
2022/07/18 09:53:41;;;;;;;4.95;1.80;;;39.30;32.90;;;;;;5097148;28;20204;-89
2022/07/18 09:56:27;;;;;;;2.45;1.98;;;39.70;32.20;;;;;;5096338;28;20245;-88
2022/07/18 09:59:09;;;;;;;1.67;1.58;;;39.20;30.50;;;;;;5096574;28;20238;-88
2022/07/18 10:01:48;;;;;;;2.22;1.75;;;39.30;31.80;;;;;;5096055;28;20203;-87
2022/07/18 10:04:38;;;;;;;5.28;3.45;;;39.90;32.60;;;;;;5096600;28;20244;-87
2022/07/18 10:10:20;;;;;;;3.95;2.75;;;40.70;31.20;;;;;;5092920;28;20207;-88
2022/07/18 10:12:55;;;;;;;2.92;1.90;;;40.90;30.90;;;;;;5096456;28;20210;-88
2022/07/18 10:15:36;;;;;;;2.08;1.77;;;40.70;30.30;;;;;;5096668;28;20230;-88
2022/07/18 10:18:28;;;;;;;4.63;1.45;;;40.70;30.50;;;;;;5096048;28;20211;-86
2022/07/18 10:21:15;;;;;;;3.38;1.88;;;40.90;30.90;;;;;;5096326;28;20219;-86
2022/07/18 10:23:55;;;;;;;1.52;1.42;;;41.00;30.40;;;;;;5096383;28;20216;-86
2022/07/18 10:26:41;;;;;;;1.58;1.48;;;41.10;30.40;;;;;;5096077;28;20223;-86
2022/07/18 10:29:31;;;;;;;3.17;1.83;;;41.50;29.90;;;;;;5096212;28;20219;-86
2022/07/18 10:32:19;;;;;;;2.05;1.88;;;41.50;29.30;;;;;;5096001;28;20203;-86
2022/07/18 10:35:01;;;;;;;3.35;1.73;;;40.60;28.70;;;;;;5096005;28;20223;-86
2022/07/18 10:37:48;;;;;;;1.95;1.60;;;39.80;28.40;;;;;;5096121;28;20207;-86
2022/07/18 10:40:42;;;;;;;2.45;1.52;;;40.00;28.90;;;;;;5095700;28;20203;-86
2022/07/18 10:43:43;;;;;;;1.70;1.60;;;39.70;29.10;;;;;;5095846;28;20223;-86
2022/07/18 10:46:24;;;;;;;1.48;1.35;;;39.10;29.80;;;;;;5095490;28;20306;-86
2022/07/18 10:49:06;;;;;;;2.78;1.33;;;38.60;30.00;;;;;;5095794;28;20210;-86
2022/07/18 10:52:09;;;;;;;1.60;1.50;;;38.80;30.40;;;;;;5095347;28;20204;-86
2022/07/18 10:55:36;;;;;;;1.80;1.70;;;39.30;30.10;;;;;;5086369;28;20227;-86
2022/07/18 10:58:27;;;;;;;3.25;1.67;;;39.70;30.10;;;;;;5013832;28;20289;-86
2022/07/18 11:01:10;;;;;;;2.00;1.70;;;39.70;29.20;;;;;;5012977;28;20233;-86
2022/07/18 11:03:49;;;;;;;5.57;2.00;;;39.90;29.80;;;;;;5013352;28;20288;-86
2022/07/18 11:06:20;;;;;;;2.45;1.73;;;40.00;29.30;;;;;;5052271;28;20230;-86
2022/07/18 11:09:00;;;;;;;1.77;1.58;;;40.20;29.20;;;;;;5095416;28;20238;-86
2022/07/18 11:12:19;;;;;;;1.67;1.58;;;40.00;28.90;;;;;;5095105;28;20306;-86
2022/07/18 11:15:11;;;;;;;3.97;1.92;;;39.90;30.00;;;;;;5095761;28;20220;-86
2022/07/18 11:18:00;;;;;;;1.67;1.58;;;40.10;29.30;;;;;;5095302;28;20200;-86
2022/07/18 11:20:42;;;;;;;1.92;1.65;;;40.20;28.30;;;;;;5095286;28;20219;-86
2022/07/18 11:23:46;;;;;;;2.10;1.80;;;40.40;28.00;;;;;;5092709;28;20234;-86
2022/07/18 11:26:31;;;;;;;2.05;1.85;;;40.50;28.70;;;;;;5095188;28;20287;-86
2022/07/18 11:29:20;;;;;;;1.50;1.40;;;40.60;27.60;;;;;;5092142;28;20195;-86
2022/07/18 11:32:09;;;;;;;3.17;1.60;;;40.30;27.40;;;;;;5095050;28;20363;-86
2022/07/18 11:34:53;;;;;;;4.35;1.67;;;40.50;28.50;;;;;;5094723;28;20227;-86
2022/07/18 11:37:40;;;;;;;1.90;1.50;;;40.60;27.30;;;;;;5094730;28;20268;-86
2022/07/18 11:40:26;;;;;;;2.35;1.60;;;40.50;28.00;;;;;;5094591;28;20211;-86
2022/07/18 11:43:36;;;;;;;5.22;1.40;;;40.40;28.50;;;;;;5094523;28;20204;-86
2022/07/18 11:46:12;;;;;;;4.00;1.42;;;40.20;28.40;;;;;;5094564;28;20222;-85
2022/07/18 11:49:00;;;;;;;2.47;1.58;;;40.00;28.60;;;;;;5094880;28;20199;-86
2022/07/18 11:51:39;;;;;;;2.28;1.38;;;39.70;28.90;;;;;;5094590;28;20292;-86
2022/07/18 11:54:34;;;;;;;1.50;1.40;;;39.70;29.40;;;;;;5093970;28;20219;-85
2022/07/18 11:57:06;;;;;;;1.17;1.08;;;39.90;28.80;;;;;;5094287;28;20257;-85
2022/07/18 12:03:14;;;;;;;1.48;1.38;;;39.50;28.20;;;;;;5093491;28;20234;-86
2022/07/18 12:11:48;;;;;;;1.83;1.40;;;38.20;28.90;;;;;;5092198;28;20195;-85
2022/07/18 12:14:46;;;;;;;3.28;1.80;;;38.40;29.40;;;;;;5093752;28;20307;-85
2022/07/18 12:17:23;;;;;;;1.38;1.27;;;38.70;29.10;;;;;;5093849;28;20196;-85
2022/07/18 12:20:09;;;;;;;1.20;1.20;;;38.40;28.70;;;;;;5093863;28;20272;-85
2022/07/18 12:23:18;;;;;;;4.22;1.80;;;38.00;28.60;;;;;;5094133;28;20210;-85
2022/07/18 12:25:57;;;;;;;1.48;1.38;;;36.90;29.00;;;;;;5091285;28;20321;-85
2022/07/18 12:28:36;;;;;;;1.38;1.27;;;36.40;29.70;;;;;;5093308;28;20219;-85
2022/07/18 12:31:27;;;;;;;1.42;1.33;;;36.10;30.30;;;;;;5093537;28;20269;-85
2022/07/18 12:34:13;;;;;;;1.58;1.48;;;36.30;30.00;;;;;;5092665;28;20228;-85
2022/07/18 12:37:06;;;;;;;2.45;1.45;;;36.80;30.10;;;;;;5093253;28;20203;-86
2022/07/18 12:39:59;;;;;;;1.60;1.35;;;37.40;29.90;;;;;;5093745;28;20200;-86
2022/07/18 12:43:11;;;;;;;8.75;1.65;;;37.80;29.20;;;;;;5093610;28;20203;-86
2022/07/18 12:45:47;;;;;;;3.88;1.58;;;38.20;28.90;;;;;;5093396;28;20232;-86
2022/07/18 12:51:28;;;;;;;1.27;1.17;;;37.60;29.00;;;;;;5093054;28;20204;-86
2022/07/18 12:54:25;;;;;;;1.95;1.20;;;37.50;29.70;;;;;;5093710;28;20235;-86
2022/07/18 12:57:08;;;;;;;1.20;1.15;;;37.40;28.80;;;;;;5093634;28;20204;-85
2022/07/18 12:59:50;;;;;;;1.33;1.23;;;36.80;29.60;;;;;;5093309;28;20196;-86
2022/07/18 13:02:30;;;;;;;1.52;1.42;;;36.20;29.10;;;;;;5093039;28;20199;-86
2022/07/18 13:08:11;;;;;;;1.95;1.20;;;35.50;30.00;;;;;;5093074;28;20227;-86
2022/07/18 13:11:08;;;;;;;1.17;1.08;;;35.40;29.70;;;;;;5075275;28;20214;-86
2022/07/18 13:14:04;;;;;;;1.58;1.30;;;35.60;29.90;;;;;;5092653;28;20227;-86
2022/07/18 13:16:49;;;;;;;1.23;1.13;;;35.90;30.30;;;;;;5093066;28;20203;-86
2022/07/18 13:19:34;;;;;;;1.77;1.50;;;36.20;29.80;;;;;;5092215;28;20199;-86
2022/07/18 13:22:21;;;;;;;1.40;1.23;;;36.20;29.60;;;;;;5092435;28;20210;-86
2022/07/18 13:25:13;;;;;;;1.73;1.33;;;36.20;29.10;;;;;;5093293;28;20227;-86
2022/07/18 13:27:57;;;;;;;1.60;1.50;;;36.00;29.10;;;;;;5092786;28;20219;-86
2022/07/18 13:30:56;;;;;;;3.35;1.85;;;35.40;29.40;;;;;;5092385;28;20212;-86
2022/07/18 13:33:42;;;;;;;1.63;1.52;;;35.40;29.80;;;;;;5092463;28;20231;-86
2022/07/18 13:36:21;;;;;;;1.58;1.42;;;35.40;29.40;;;;;;5092817;28;20195;-86
2022/07/18 13:39:24;;;;;;;1.70;1.60;;;35.20;29.90;;;;;;5092712;28;20227;-86
2022/07/18 13:42:09;;;;;;;1.30;1.20;;;35.40;30.20;;;;;;5064318;28;20203;-86
2022/07/18 13:44:40;;;;;;;1.30;1.20;;;35.20;29.50;;;;;;5092657;28;20220;-86
2022/07/18 13:47:32;;;;;;;1.40;1.30;;;35.10;29.50;;;;;;5092531;28;20217;-86
2022/07/18 13:50:07;;;;;;;1.50;1.40;;;34.90;29.30;;;;;;5092713;28;20207;-86
2022/07/18 13:52:59;;;;;;;1.17;1.08;;;34.50;29.50;;;;;;5092356;28;20204;-86
2022/07/18 13:55:48;;;;;;;3.55;1.20;;;34.20;29.60;;;;;;5092604;28;20232;-86
2022/07/18 13:58:31;;;;;;;5.25;1.58;;;33.80;29.70;;;;;;5092429;28;20204;-86
2022/07/18 14:01:09;;;;;;;1.52;1.42;;;34.00;30.00;;;;;;5092375;28;20203;-86
2022/07/18 14:03:56;;;;;;;2.28;1.73;;;33.80;29.70;;;;;;5091955;28;20231;-86
2022/07/18 14:06:39;;;;;;;1.52;1.38;;;33.50;29.50;;;;;;5092430;28;20203;-86
2022/07/18 14:09:18;;;;;;;1.20;1.10;;;33.50;30.40;;;;;;5092220;28;20220;-86
2022/07/18 14:11:57;;;;;;;1.40;1.30;;;33.60;30.10;;;;;;5092230;28;20211;-86
2022/07/18 14:14:49;;;;;;;1.65;1.15;;;33.80;30.00;;;;;;5092776;28;20281;-86
2022/07/18 14:17:33;;;;;;;7.25;1.55;;;34.00;29.20;;;;;;5092282;28;20212;-86
2022/07/18 14:23:31;;;;;;;1.20;1.15;;;34.20;29.70;;;;;;5091536;28;20249;-86
2022/07/18 14:29:31;;;;;;;1.40;1.30;;;34.40;29.80;;;;;;5079257;28;20230;-86
2022/07/18 14:35:16;;;;;;;1.55;1.45;;;34.10;29.60;;;;;;5096165;28;20237;-86
2022/07/18 14:38:08;;;;;;;1.38;1.25;;;33.60;29.70;;;;;;5096062;28;20203;-86
2022/07/18 14:44:00;;;;;;;2.13;1.23;;;33.10;30.00;;;;;;5095331;28;20224;-85
2022/07/18 14:46:53;;;;;;;0.90;0.90;;;33.00;30.70;;;;;;5082005;28;20220;-86
2022/07/18 14:52:23;;;;;;;1.33;1.27;;;33.10;30.30;;;;;;5091718;28;20208;-86
2022/07/18 14:58:24;;;;;;;1.48;1.20;;;32.90;30.30;;;;;;5075587;28;20208;-86
2022/07/18 15:04:38;;;;;;;;;;;;;;;;;;;;;
2022/07/18 15:17:41;;;;;;;1.13;1.00;;;32.40;31.40;;;;;;5089390;28;20249;-86
2022/07/18 15:23:53;;;;;;;0.88;0.88;;;31.80;31.50;;;;;;4988809;28;20216;-88
2022/07/18 15:26:53;;;;;;;1.27;1.10;;;31.50;31.80;;;;;;5022344;28;20212;-88
2022/07/18 15:30:15;;;;;;;1.08;1.00;;;31.10;32.10;;;;;;5032933;28;20302;-88
2022/07/18 15:33:42;;;;;;;1.10;1.00;;;31.00;32.80;;;;;;5032448;28;20210;-88
2022/07/18 15:36:36;;;;;;;1.08;1.00;;;31.00;31.90;;;;;;5032610;28;20329;-88
2022/07/18 15:42:57;;;;;;;1.00;1.00;;;31.00;32.10;;;;;;5021635;28;20253;-88
2022/07/18 15:45:41;;;;;;;0.88;0.88;;;30.90;32.40;;;;;;5032762;28;20233;-88
2022/07/18 15:48:15;;;;;;;0.82;0.82;;;30.80;32.50;;;;;;5032276;28;20214;-87
2022/07/18 15:57:57;;;;;;;1.63;0.90;;;30.60;33.10;;;;;;5051425;28;20212;-88
2022/07/18 16:00:59;;;;;;;1.05;1.02;;;30.20;33.80;;;;;;5037696;28;20209;-88
2022/07/18 16:04:09;;;;;;;0.98;0.95;;;30.20;34.30;;;;;;5093984;28;20204;-88
2022/07/18 16:07:19;;;;;;;1.58;1.00;;;30.20;34.20;;;;;;5094326;28;20211;-88
2022/07/18 16:10:07;;;;;;;1.55;1.10;;;30.20;35.00;;;;;;5093731;28;20212;-87
2022/07/18 16:13:30;;;;;;;;;;;;;;;;;;;;;
2022/07/18 16:16:31;;;;;;;1.00;1.00;;;30.20;34.60;;;;;;5081667;28;20200;-88
2022/07/18 16:19:14;;;;;;;2.08;1.20;;;30.10;35.20;;;;;;5093655;28;20224;-88
2022/07/18 16:22:03;;;;;;;0.85;0.85;;;30.10;35.20;;;;;;5094029;28;20204;-88
2022/07/18 16:24:59;;;;;;;3.33;1.20;;;30.10;35.10;;;;;;5093589;28;20230;-88
2022/07/18 16:30:39;;;;;;;1.70;1.60;;;29.90;35.90;;;;;;5092562;28;20311;-88
2022/07/18 16:33:15;;;;;;;1.83;1.67;;;30.00;35.70;;;;;;5093821;28;20261;-88
2022/07/18 16:35:55;;;;;;;1.08;1.08;;;29.90;35.70;;;;;;5093817;28;20294;-88
2022/07/18 16:38:37;;;;;;;1.42;1.25;;;30.00;36.70;;;;;;5093815;28;20298;-88
2022/07/18 16:41:24;;;;;;;1.67;1.40;;;30.00;35.80;;;;;;5093675;28;20204;-88
2022/07/18 16:44:14;;;;;;;1.50;1.25;;;30.00;36.10;;;;;;5093570;28;20230;-88
2022/07/18 16:47:13;;;;;;;1.10;1.05;;;30.00;36.10;;;;;;5093073;28;20204;-88
2022/07/18 16:50:06;;;;;;;2.17;1.92;;;30.00;36.20;;;;;;5093236;28;20288;-88
2022/07/18 16:53:08;;;;;;;1.88;1.77;;;30.10;36.90;;;;;;5092377;28;20228;-88
2022/07/18 17:04:01;;;;;;;2.28;2.08;;;30.00;36.90;;;;;;5049996;28;20212;-87
2022/07/18 17:06:47;;;;;;;4.18;1.98;;;29.90;37.00;;;;;;5052587;28;20198;-87